Time;durP1;ratioP1;P1;durP2;ratioP2;P2;SDS_P1;SDS_P2;PMS_P1;PMS_P2;Temp;Humidity;BMP_temperature;BMP_pressure;BME280_temperature;BME280_humidity;BME280_pressure;Samples;Min_cycle;Max_cycle;Signal;HPM_P1;HPM_P2
2023/03/25 00:02:19;;;;;;;3.83;2.05;;;;;;;;;;5050912;28;20179;-59
2023/03/25 00:04:49;;;;;;;3.40;1.90;;;;;;;;;;5047310;28;20194;-59
2023/03/25 00:07:17;;;;;;;3.70;1.92;;;;;;;;;;5049990;28;20177;-59
2023/03/25 00:09:43;;;;;;;4.07;2.00;;;;;;;;;;5034128;28;20184;-59
2023/03/25 00:12:09;;;;;;;2.85;2.00;;;;;;;;;;5040989;28;20563;-59
2023/03/25 00:14:35;;;;;;;3.72;2.10;;;;;;;;;;5039185;28;20183;-59
2023/03/25 00:17:01;;;;;;;5.80;2.00;;;;;;;;;;5042273;28;20179;-59
2023/03/25 00:19:27;;;;;;;3.40;1.98;;;;;;;;;;5042397;28;20633;-59
2023/03/25 00:21:53;;;;;;;4.03;2.20;;;;;;;;;;5036701;28;20403;-59
2023/03/25 00:24:19;;;;;;;2.53;1.73;;;;;;;;;;5043296;28;20184;-59
2023/03/25 00:26:47;;;;;;;3.80;2.35;;;;;;;;;;5034986;28;20179;-59
2023/03/25 00:29:13;;;;;;;4.20;1.75;;;;;;;;;;5030095;28;20180;-59
2023/03/25 00:31:39;;;;;;;3.33;1.92;;;;;;;;;;5040818;28;20182;-59
2023/03/25 00:34:05;;;;;;;4.13;2.20;;;;;;;;;;5047408;28;20190;-59
2023/03/25 00:36:31;;;;;;;4.00;2.25;;;;;;;;;;5041500;28;20195;-59
2023/03/25 00:38:57;;;;;;;3.08;2.03;;;;;;;;;;5036135;28;20215;-59
2023/03/25 00:41:24;;;;;;;4.18;1.90;;;;;;;;;;5038896;28;20478;-59
2023/03/25 00:43:57;;;;;;;3.15;1.92;;;;;;;;;;5043711;28;20236;-59
2023/03/25 00:46:25;;;;;;;2.17;1.90;;;;;;;;;;5046145;28;20238;-59
2023/03/25 00:48:52;;;;;;;3.40;1.80;;;;;;;;;;5043807;28;20182;-59
2023/03/25 00:51:20;;;;;;;3.58;1.98;;;;;;;;;;5031202;28;20179;-59
2023/03/25 00:53:46;;;;;;;3.50;2.03;;;;;;;;;;5039027;28;20179;-59
2023/03/25 00:56:12;;;;;;;5.28;2.00;;;;;;;;;;5045142;28;20188;-59
2023/03/25 00:58:38;;;;;;;3.85;1.98;;;;;;;;;;5042923;28;20282;-59
2023/03/25 01:01:12;;;;;;;2.40;1.80;;;;;;;;;;5038436;28;20319;-59
2023/03/25 01:03:38;;;;;;;2.53;1.67;;;;;;;;;;5039679;28;20258;-59
2023/03/25 01:06:08;;;;;;;4.25;1.92;;;;;;;;;;5032441;28;20192;-59
2023/03/25 01:08:34;;;;;;;3.90;1.60;;;;;;;;;;5034396;28;20194;-59
2023/03/25 01:11:00;;;;;;;2.40;1.67;;;;;;;;;;5039596;28;20600;-59
2023/03/25 01:13:26;;;;;;;2.83;1.80;;;;;;;;;;5049628;28;20180;-59
2023/03/25 01:15:52;;;;;;;2.90;1.70;;;;;;;;;;5021767;28;20193;-59
2023/03/25 01:18:18;;;;;;;2.67;1.80;;;;;;;;;;5035623;28;20643;-59
2023/03/25 01:20:44;;;;;;;3.25;1.42;;;;;;;;;;5033338;28;20267;-59
2023/03/25 01:23:10;;;;;;;3.45;1.63;;;;;;;;;;5040348;28;20179;-59
2023/03/25 01:25:36;;;;;;;2.97;1.30;;;;;;;;;;5038767;28;20229;-59
2023/03/25 01:28:03;;;;;;;1.98;1.27;;;;;;;;;;5045095;28;20522;-59
2023/03/25 01:30:29;;;;;;;2.45;1.42;;;;;;;;;;5036878;28;20488;-59
2023/03/25 01:32:55;;;;;;;2.20;1.20;;;;;;;;;;5047781;28;20187;-59
2023/03/25 01:35:21;;;;;;;2.15;1.08;;;;;;;;;;5031461;28;20188;-59
2023/03/25 01:37:46;;;;;;;1.95;0.95;;;;;;;;;;5033790;28;20265;-59
2023/03/25 01:40:17;;;;;;;1.15;0.68;;;;;;;;;;5042520;28;20265;-59
2023/03/25 01:42:43;;;;;;;2.42;1.27;;;;;;;;;;5041327;28;20417;-59
2023/03/25 01:45:14;;;;;;;1.77;0.82;;;;;;;;;;5034276;28;20249;-59
2023/03/25 01:47:40;;;;;;;2.47;1.00;;;;;;;;;;5045034;28;20239;-59
2023/03/25 01:50:07;;;;;;;1.35;0.77;;;;;;;;;;5041767;28;20245;-59
2023/03/25 01:52:33;;;;;;;2.22;0.82;;;;;;;;;;5038659;28;20179;-59
2023/03/25 01:54:59;;;;;;;0.82;0.70;;;;;;;;;;5037689;28;20839;-59
2023/03/25 01:57:26;;;;;;;2.40;0.90;;;;;;;;;;5045217;28;20179;-59
2023/03/25 01:59:53;;;;;;;1.67;0.70;;;;;;;;;;5039968;28;20211;-59
2023/03/25 02:02:20;;;;;;;1.20;0.70;;;;;;;;;;5025417;28;20272;-59
2023/03/25 02:04:57;;;;;;;2.33;0.80;;;;;;;;;;5036786;28;20459;-59
2023/03/25 02:07:29;;;;;;;1.45;0.80;;;;;;;;;;5037731;28;20195;-58
2023/03/25 02:10:00;;;;;;;3.90;1.00;;;;;;;;;;5035434;28;20183;-59
2023/03/25 02:12:26;;;;;;;1.60;0.80;;;;;;;;;;5042490;28;20179;-59
2023/03/25 02:14:56;;;;;;;0.50;0.40;;;;;;;;;;5035252;28;20184;-58
2023/03/25 02:17:28;;;;;;;2.80;1.05;;;;;;;;;;5044548;28;20176;-59
2023/03/25 02:20:12;;;;;;;1.17;0.77;;;;;;;;;;5040031;28;20471;-59
2023/03/25 02:22:57;;;;;;;1.70;0.80;;;;;;;;;;5031034;28;20516;-58
2023/03/25 02:25:34;;;;;;;1.20;0.55;;;;;;;;;;5043848;28;20186;-59
2023/03/25 02:28:09;;;;;;;0.90;0.55;;;;;;;;;;5044863;28;20229;-59
2023/03/25 02:30:50;;;;;;;1.50;0.55;;;;;;;;;;5034446;28;20185;-58
2023/03/25 02:33:22;;;;;;;1.95;0.60;;;;;;;;;;5036066;28;20463;-58
2023/03/25 02:35:57;;;;;;;1.00;0.60;;;;;;;;;;5037530;28;20457;-58
2023/03/25 02:38:42;;;;;;;1.88;0.98;;;;;;;;;;5033330;28;20180;-58
2023/03/25 02:41:26;;;;;;;0.88;0.75;;;;;;;;;;5024182;28;20211;-60
2023/03/25 02:44:21;;;;;;;2.08;0.80;;;;;;;;;;5031434;28;20176;-60
2023/03/25 02:46:49;;;;;;;1.38;0.60;;;;;;;;;;5040502;28;20282;-58
2023/03/25 02:49:18;;;;;;;1.83;0.70;;;;;;;;;;5040398;28;20192;-58
2023/03/25 02:51:48;;;;;;;1.15;0.57;;;;;;;;;;5035858;28;20187;-59
2023/03/25 02:54:15;;;;;;;1.58;0.80;;;;;;;;;;5049353;28;20466;-59
2023/03/25 02:56:43;;;;;;;4.43;0.80;;;;;;;;;;5045895;28;20858;-60
2023/03/25 02:59:13;;;;;;;1.70;0.90;;;;;;;;;;5047393;28;20242;-59
2023/03/25 03:01:39;;;;;;;1.10;0.80;;;;;;;;;;5052558;28;20172;-59
2023/03/25 03:04:05;;;;;;;1.33;0.60;;;;;;;;;;5038708;28;20203;-59
2023/03/25 03:06:36;;;;;;;1.75;0.80;;;;;;;;;;5032443;28;20543;-59
2023/03/25 03:09:17;;;;;;;0.52;0.45;;;;;;;;;;5040414;28;20223;-58
2023/03/25 03:12:09;;;;;;;0.95;0.50;;;;;;;;;;5032415;28;20175;-59
2023/03/25 03:14:44;;;;;;;1.38;0.63;;;;;;;;;;5030564;28;20199;-58
2023/03/25 03:17:21;;;;;;;0.88;0.47;;;;;;;;;;5041317;28;20657;-58
2023/03/25 03:19:59;;;;;;;0.88;0.52;;;;;;;;;;5024731;28;20254;-58
2023/03/25 03:22:38;;;;;;;2.00;0.50;;;;;;;;;;5037167;28;20267;-59
2023/03/25 03:25:14;;;;;;;1.45;0.60;;;;;;;;;;5033154;28;20241;-58
2023/03/25 03:27:45;;;;;;;0.77;0.70;;;;;;;;;;5038632;28;20168;-58
2023/03/25 03:30:19;;;;;;;1.30;0.50;;;;;;;;;;5034230;28;20498;-58
2023/03/25 03:32:52;;;;;;;3.00;0.55;;;;;;;;;;5046728;28;20199;-58
2023/03/25 03:35:23;;;;;;;1.45;0.40;;;;;;;;;;5035834;28;20282;-59
2023/03/25 03:37:57;;;;;;;0.85;0.40;;;;;;;;;;5033563;28;20249;-59
2023/03/25 03:40:24;;;;;;;0.95;0.50;;;;;;;;;;5055037;28;20218;-58
2023/03/25 03:42:55;;;;;;;0.88;0.40;;;;;;;;;;5049895;28;20207;-58
2023/03/25 03:45:30;;;;;;;0.68;0.40;;;;;;;;;;5030181;28;20184;-58
2023/03/25 03:47:57;;;;;;;1.58;0.80;;;;;;;;;;5041321;28;20205;-58
2023/03/25 03:50:26;;;;;;;1.05;0.70;;;;;;;;;;5039032;28;20187;-59
2023/03/25 03:52:58;;;;;;;1.17;0.30;;;;;;;;;;5056236;28;20183;-60
2023/03/25 03:55:27;;;;;;;1.30;0.68;;;;;;;;;;5035409;28;20251;-60
2023/03/25 03:57:56;;;;;;;1.27;0.45;;;;;;;;;;5051058;28;20225;-60
2023/03/25 04:00:25;;;;;;;1.42;0.40;;;;;;;;;;5041061;28;20204;-61
2023/03/25 04:03:13;;;;;;;0.80;0.40;;;;;;;;;;5028289;28;20602;-60
2023/03/25 04:05:40;;;;;;;0.68;0.50;;;;;;;;;;5039145;28;20257;-61
2023/03/25 04:08:22;;;;;;;0.80;0.70;;;;;;;;;;5051756;28;20171;-63
2023/03/25 04:10:51;;;;;;;0.60;0.50;;;;;;;;;;5038584;28;20205;-61
2023/03/25 04:13:19;;;;;;;0.80;0.50;;;;;;;;;;5041925;28;20219;-60
2023/03/25 04:15:45;;;;;;;0.40;0.40;;;;;;;;;;5038046;28;20304;-61
2023/03/25 04:18:11;;;;;;;1.40;0.40;;;;;;;;;;5045605;28;20226;-60
2023/03/25 04:20:43;;;;;;;0.38;0.38;;;;;;;;;;5047158;28;20203;-60
2023/03/25 04:23:14;;;;;;;0.50;0.50;;;;;;;;;;5036151;28;20310;-59
2023/03/25 04:25:40;;;;;;;0.68;0.40;;;;;;;;;;5034318;28;20183;-59
2023/03/25 04:28:06;;;;;;;0.73;0.50;;;;;;;;;;5047879;28;20186;-59
2023/03/25 04:30:32;;;;;;;1.77;0.63;;;;;;;;;;5032118;28;20477;-60
2023/03/25 04:32:59;;;;;;;0.82;0.60;;;;;;;;;;5036195;28;20221;-60
2023/03/25 04:35:25;;;;;;;1.15;0.55;;;;;;;;;;5039809;28;20188;-58
2023/03/25 04:37:56;;;;;;;1.63;0.63;;;;;;;;;;5049993;28;20210;-59
2023/03/25 04:40:24;;;;;;;1.67;0.50;;;;;;;;;;5043654;28;20487;-59
2023/03/25 04:42:52;;;;;;;2.05;0.50;;;;;;;;;;5036365;28;20192;-58
2023/03/25 04:45:17;;;;;;;3.70;0.47;;;;;;;;;;5040116;28;20217;-58
2023/03/25 04:47:45;;;;;;;1.10;0.60;;;;;;;;;;5039616;28;20556;-59
2023/03/25 04:50:19;;;;;;;0.93;0.75;;;;;;;;;;5046429;28;20211;-59
2023/03/25 04:52:45;;;;;;;0.73;0.73;;;;;;;;;;5046964;28;20669;-58
2023/03/25 04:55:16;;;;;;;1.45;0.60;;;;;;;;;;5037711;28;20179;-58
2023/03/25 04:57:42;;;;;;;1.80;0.45;;;;;;;;;;5023375;28;20548;-59
2023/03/25 05:00:09;;;;;;;1.45;0.60;;;;;;;;;;5047240;28;20217;-58
2023/03/25 05:02:35;;;;;;;1.13;0.45;;;;;;;;;;5032657;28;20180;-58
2023/03/25 05:05:01;;;;;;;0.50;0.50;;;;;;;;;;5036313;28;20562;-57
2023/03/25 05:07:28;;;;;;;1.83;0.68;;;;;;;;;;5041207;28;20583;-59
2023/03/25 05:09:56;;;;;;;1.08;0.52;;;;;;;;;;5053073;28;20175;-59
2023/03/25 05:12:21;;;;;;;1.23;0.73;;;;;;;;;;5026503;28;20227;-59
2023/03/25 05:14:47;;;;;;;2.47;0.60;;;;;;;;;;5031577;28;20219;-58
2023/03/25 05:17:13;;;;;;;1.92;0.60;;;;;;;;;;5039881;28;20195;-58
2023/03/25 05:19:42;;;;;;;1.10;0.47;;;;;;;;;;5041629;28;20215;-58
2023/03/25 05:22:08;;;;;;;1.30;0.68;;;;;;;;;;5038240;28;20183;-58
2023/03/25 05:24:36;;;;;;;1.25;0.60;;;;;;;;;;5033177;28;20191;-57
2023/03/25 05:27:02;;;;;;;1.10;0.40;;;;;;;;;;5044176;28;20575;-58
2023/03/25 05:29:32;;;;;;;2.17;0.70;;;;;;;;;;5052333;28;20182;-58
2023/03/25 05:31:58;;;;;;;0.60;0.40;;;;;;;;;;5032200;28;20207;-58
2023/03/25 05:34:24;;;;;;;1.85;0.60;;;;;;;;;;5032916;28;20513;-58
2023/03/25 05:36:50;;;;;;;1.00;0.60;;;;;;;;;;5033196;28;20214;-57
2023/03/25 05:39:16;;;;;;;1.10;0.60;;;;;;;;;;5036003;28;20207;-57
2023/03/25 05:41:44;;;;;;;1.10;0.63;;;;;;;;;;5048985;28;20215;-57
2023/03/25 05:44:13;;;;;;;1.10;0.60;;;;;;;;;;5038313;28;20206;-56
2023/03/25 05:46:39;;;;;;;1.55;0.80;;;;;;;;;;5030381;28;20199;-57
2023/03/25 05:49:05;;;;;;;1.10;0.57;;;;;;;;;;5051270;28;20213;-57
2023/03/25 05:51:36;;;;;;;3.22;0.70;;;;;;;;;;5043337;28;20218;-57
2023/03/25 05:54:02;;;;;;;1.33;0.57;;;;;;;;;;5045520;28;20183;-57
2023/03/25 05:56:28;;;;;;;1.77;0.68;;;;;;;;;;5038684;28;20180;-56
2023/03/25 05:58:55;;;;;;;2.05;0.73;;;;;;;;;;5052810;28;20281;-54
2023/03/25 06:01:21;;;;;;;4.28;1.52;;;;;;;;;;5043891;28;20206;-49
2023/03/25 06:03:47;;;;;;;14.73;3.38;;;;;;;;;;5041141;28;20196;-62
2023/03/25 06:06:17;;;;;;;17.25;3.90;;;;;;;;;;5035863;28;20202;-61
2023/03/25 06:08:44;;;;;;;11.00;2.40;;;;;;;;;;5027623;28;20171;-61
2023/03/25 06:11:12;;;;;;;11.57;2.70;;;;;;;;;;5050322;28;20183;-61
2023/03/25 06:13:39;;;;;;;14.35;3.20;;;;;;;;;;5043011;28;20183;-61
2023/03/25 06:16:05;;;;;;;7.93;3.00;;;;;;;;;;5035789;28;20187;-61
2023/03/25 06:18:31;;;;;;;19.77;2.95;;;;;;;;;;5038476;28;20185;-61
2023/03/25 06:20:57;;;;;;;12.40;2.28;;;;;;;;;;5046201;28;20194;-60
2023/03/25 06:23:25;;;;;;;10.38;3.00;;;;;;;;;;5049580;28;20190;-61
2023/03/25 06:25:51;;;;;;;5.55;1.77;;;;;;;;;;5036959;28;20470;-61
2023/03/25 06:28:17;;;;;;;11.80;2.05;;;;;;;;;;5040030;28;20266;-60
2023/03/25 06:30:47;;;;;;;9.70;2.17;;;;;;;;;;5034587;28;20285;-60
2023/03/25 06:33:14;;;;;;;8.52;2.38;;;;;;;;;;5042710;28;20180;-60
2023/03/25 06:35:43;;;;;;;7.75;1.92;;;;;;;;;;5047140;28;20324;-61
2023/03/25 06:38:09;;;;;;;7.15;1.63;;;;;;;;;;5034591;28;20196;-60
2023/03/25 06:40:36;;;;;;;8.30;1.65;;;;;;;;;;5039865;28;20342;-60
2023/03/25 06:43:03;;;;;;;5.53;2.03;;;;;;;;;;5030598;28;20536;-61
2023/03/25 06:45:29;;;;;;;8.85;1.92;;;;;;;;;;5038541;28;20180;-60
2023/03/25 06:47:55;;;;;;;5.05;1.60;;;;;;;;;;5046956;28;20187;-61
2023/03/25 06:50:21;;;;;;;4.03;1.38;;;;;;;;;;5036678;28;20188;-60
2023/03/25 06:52:46;;;;;;;6.45;1.20;;;;;;;;;;5043601;28;20238;-61
2023/03/25 06:55:12;;;;;;;2.20;1.27;;;;;;;;;;5047729;28;20237;-61
2023/03/25 06:57:38;;;;;;;3.75;1.17;;;;;;;;;;5039966;28;20370;-61
2023/03/25 07:00:05;;;;;;;4.78;1.17;;;;;;;;;;5041034;28;20795;-61
2023/03/25 07:02:31;;;;;;;4.50;1.30;;;;;;;;;;5035306;28;20208;-60
2023/03/25 07:04:57;;;;;;;2.92;1.40;;;;;;;;;;5045144;28;20516;-60
2023/03/25 07:07:23;;;;;;;4.97;1.15;;;;;;;;;;5031625;28;20207;-61
2023/03/25 07:09:54;;;;;;;3.03;1.30;;;;;;;;;;5051484;28;20187;-61
2023/03/25 07:12:20;;;;;;;4.45;1.30;;;;;;;;;;5028660;28;20215;-60
2023/03/25 07:14:52;;;;;;;4.20;1.50;;;;;;;;;;5035534;28;20181;-60
2023/03/25 07:17:18;;;;;;;3.03;1.30;;;;;;;;;;5033772;28;20459;-60
2023/03/25 07:19:45;;;;;;;5.25;1.23;;;;;;;;;;5040307;28;20203;-61
2023/03/25 07:22:11;;;;;;;2.90;1.50;;;;;;;;;;5047181;28;20170;-60
2023/03/25 07:24:37;;;;;;;3.03;0.82;;;;;;;;;;5045807;28;20250;-60
2023/03/25 07:27:02;;;;;;;2.72;0.93;;;;;;;;;;5028653;28;20192;-60
2023/03/25 07:29:28;;;;;;;2.03;0.85;;;;;;;;;;5034121;28;20210;-61
2023/03/25 07:31:54;;;;;;;2.00;1.15;;;;;;;;;;5042983;28;20202;-61
2023/03/25 07:34:20;;;;;;;3.03;0.90;;;;;;;;;;5040154;28;20421;-61
2023/03/25 07:36:46;;;;;;;1.48;0.73;;;;;;;;;;5055924;28;20234;-61
2023/03/25 07:39:12;;;;;;;3.83;1.10;;;;;;;;;;5043398;28;20562;-61
2023/03/25 07:41:38;;;;;;;4.40;1.27;;;;;;;;;;5036853;28;20186;-61
2023/03/25 07:44:04;;;;;;;3.75;0.90;;;;;;;;;;5035846;28;20241;-61
2023/03/25 07:46:30;;;;;;;1.38;0.70;;;;;;;;;;5032839;28;20187;-60
2023/03/25 07:48:56;;;;;;;2.40;0.90;;;;;;;;;;5049334;28;20175;-61
2023/03/25 07:51:22;;;;;;;2.08;0.70;;;;;;;;;;5030255;28;20184;-60
2023/03/25 07:53:48;;;;;;;1.58;0.70;;;;;;;;;;5047860;28;20179;-60
2023/03/25 07:56:14;;;;;;;0.63;0.60;;;;;;;;;;5035884;28;20440;-61
2023/03/25 07:58:40;;;;;;;1.73;1.00;;;;;;;;;;5028697;28;20179;-61
2023/03/25 08:01:07;;;;;;;1.33;0.70;;;;;;;;;;5035585;28;20505;-61
2023/03/25 08:03:33;;;;;;;0.88;0.60;;;;;;;;;;5031802;28;20253;-60
2023/03/25 08:06:01;;;;;;;2.65;0.82;;;;;;;;;;5038572;28;20184;-60
2023/03/25 08:08:28;;;;;;;2.00;0.60;;;;;;;;;;5047704;28;20185;-60
2023/03/25 08:10:55;;;;;;;2.65;0.80;;;;;;;;;;5042720;28;20707;-61
2023/03/25 08:13:21;;;;;;;1.73;0.70;;;;;;;;;;5038772;28;20179;-60
2023/03/25 08:15:47;;;;;;;0.95;0.63;;;;;;;;;;5036938;28;20191;-61
2023/03/25 08:18:13;;;;;;;1.23;0.68;;;;;;;;;;5048556;28;20187;-61
2023/03/25 08:20:39;;;;;;;1.50;0.70;;;;;;;;;;5031229;28;20289;-60
2023/03/25 08:23:09;;;;;;;0.75;0.60;;;;;;;;;;5045147;28;20269;-60
2023/03/25 08:25:36;;;;;;;0.98;0.60;;;;;;;;;;5038119;28;20177;-61
2023/03/25 08:28:02;;;;;;;2.22;0.68;;;;;;;;;;5042915;28;20226;-61
2023/03/25 08:30:28;;;;;;;1.08;0.70;;;;;;;;;;5042242;28;20456;-61
2023/03/25 08:32:54;;;;;;;1.80;0.60;;;;;;;;;;5043924;28;20215;-61
2023/03/25 08:35:21;;;;;;;1.00;0.77;;;;;;;;;;5032350;28;20705;-61
2023/03/25 08:37:47;;;;;;;1.17;0.47;;;;;;;;;;5051474;28;20582;-61
2023/03/25 08:40:15;;;;;;;0.93;0.70;;;;;;;;;;5035797;28;20662;-61
2023/03/25 08:42:41;;;;;;;1.50;0.70;;;;;;;;;;5042685;28;20197;-61
2023/03/25 08:45:08;;;;;;;0.65;0.55;;;;;;;;;;5038062;28;20536;-61
2023/03/25 08:47:34;;;;;;;1.40;0.73;;;;;;;;;;5050322;28;20210;-62
2023/03/25 08:50:00;;;;;;;1.67;0.60;;;;;;;;;;5037800;28;20492;-62
2023/03/25 08:52:26;;;;;;;0.40;0.40;;;;;;;;;;5035574;28;20558;-61
2023/03/25 08:54:52;;;;;;;1.38;0.50;;;;;;;;;;5025563;28;20222;-61
2023/03/25 08:57:18;;;;;;;0.85;0.40;;;;;;;;;;5034881;28;20212;-61
2023/03/25 08:59:43;;;;;;;0.93;0.40;;;;;;;;;;5035144;28;20586;-61
2023/03/25 09:02:11;;;;;;;1.10;0.63;;;;;;;;;;5033834;28;20184;-62
2023/03/25 09:04:38;;;;;;;0.40;0.40;;;;;;;;;;5032778;28;20243;-61
2023/03/25 09:07:04;;;;;;;1.00;0.80;;;;;;;;;;5040917;28;20178;-62
2023/03/25 09:09:30;;;;;;;0.90;0.40;;;;;;;;;;5048561;28;20180;-61
2023/03/25 09:11:56;;;;;;;0.68;0.50;;;;;;;;;;5028837;28;20253;-61
2023/03/25 09:14:22;;;;;;;0.77;0.40;;;;;;;;;;5030692;28;20183;-61
2023/03/25 09:16:48;;;;;;;2.30;0.55;;;;;;;;;;5039879;28;20195;-62
2023/03/25 09:19:14;;;;;;;2.17;0.70;;;;;;;;;;5037696;28;20614;-61
2023/03/25 09:21:40;;;;;;;0.70;0.43;;;;;;;;;;5038953;28;20230;-61
2023/03/25 09:24:07;;;;;;;1.45;0.80;;;;;;;;;;5045797;28;20420;-61
2023/03/25 09:26:33;;;;;;;1.20;0.40;;;;;;;;;;5043214;28;21358;-61
2023/03/25 09:28:59;;;;;;;1.38;0.63;;;;;;;;;;5049307;28;20175;-62
2023/03/25 09:31:26;;;;;;;0.55;0.40;;;;;;;;;;5044353;28;20477;-62
2023/03/25 09:33:52;;;;;;;1.38;0.60;;;;;;;;;;5031322;28;20180;-61
2023/03/25 09:36:17;;;;;;;0.93;0.63;;;;;;;;;;5029412;28;20218;-62
2023/03/25 09:38:46;;;;;;;0.65;0.43;;;;;;;;;;5034099;28;20538;-62
2023/03/25 09:41:32;;;;;;;0.98;0.50;;;;;;;;;;5034811;28;20173;-62
2023/03/25 09:44:24;;;;;;;0.80;0.68;;;;;;;;;;5043540;28;20245;-61
2023/03/25 09:46:50;;;;;;;0.95;0.35;;;;;;;;;;5034565;28;20199;-59
2023/03/25 09:49:19;;;;;;;0.43;0.35;;;;;;;;;;5053771;28;20189;-61
2023/03/25 09:51:47;;;;;;;0.57;0.50;;;;;;;;;;5038472;28;20203;-61
2023/03/25 09:54:16;;;;;;;0.90;0.60;;;;;;;;;;5036918;28;20304;-61
2023/03/25 09:56:43;;;;;;;0.68;0.50;;;;;;;;;;5041734;28;20183;-61
2023/03/25 09:59:19;;;;;;;0.93;0.52;;;;;;;;;;5035534;28;20267;-61
2023/03/25 10:01:54;;;;;;;0.70;0.40;;;;;;;;;;5038065;28;20179;-62
2023/03/25 10:04:38;;;;;;;1.90;0.50;;;;;;;;;;5028940;28;20164;-61
2023/03/25 10:07:25;;;;;;;1.65;0.57;;;;;;;;;;5025829;28;20186;-61
2023/03/25 10:10:11;;;;;;;0.50;0.50;;;;;;;;;;5026726;28;20191;-61
2023/03/25 10:12:37;;;;;;;0.55;0.40;;;;;;;;;;5028448;28;20249;-62
2023/03/25 10:15:06;;;;;;;0.65;0.40;;;;;;;;;;5033589;28;20538;-62
2023/03/25 10:17:39;;;;;;;0.73;0.40;;;;;;;;;;5044202;28;20416;-61
2023/03/25 10:20:19;;;;;;;0.63;0.50;;;;;;;;;;5043545;28;20242;-61
2023/03/25 10:23:00;;;;;;;0.95;0.40;;;;;;;;;;5050519;28;20203;-61
2023/03/25 10:25:28;;;;;;;0.93;0.40;;;;;;;;;;5042279;28;20199;-61
2023/03/25 10:27:55;;;;;;;0.60;0.38;;;;;;;;;;5041950;28;20179;-61
2023/03/25 10:30:23;;;;;;;0.52;0.40;;;;;;;;;;5036875;28;20188;-61
2023/03/25 10:32:55;;;;;;;0.52;0.40;;;;;;;;;;5042564;28;20192;-61
2023/03/25 10:35:29;;;;;;;0.32;0.32;;;;;;;;;;5040803;28;20221;-61
2023/03/25 10:37:58;;;;;;;0.30;0.25;;;;;;;;;;5040791;28;20282;-61
2023/03/25 10:40:29;;;;;;;0.40;0.30;;;;;;;;;;5037404;28;20287;-61
2023/03/25 10:42:58;;;;;;;1.33;0.68;;;;;;;;;;5048825;28;20205;-61
2023/03/25 10:45:26;;;;;;;0.50;0.40;;;;;;;;;;5039327;28;20424;-61
2023/03/25 10:47:54;;;;;;;0.60;0.30;;;;;;;;;;5043219;28;20477;-61
2023/03/25 10:50:21;;;;;;;0.95;0.50;;;;;;;;;;5029137;28;20173;-61
2023/03/25 10:52:50;;;;;;;0.55;0.55;;;;;;;;;;5050060;28;20187;-61
2023/03/25 10:55:22;;;;;;;0.68;0.40;;;;;;;;;;5045104;28;20271;-61
2023/03/25 10:57:48;;;;;;;0.40;0.30;;;;;;;;;;5044620;28;20176;-61
2023/03/25 11:00:16;;;;;;;0.63;0.32;;;;;;;;;;5030147;28;20238;-61
2023/03/25 11:02:42;;;;;;;1.45;0.50;;;;;;;;;;5031006;28;20164;-61
2023/03/25 11:05:09;;;;;;;0.20;0.20;;;;;;;;;;5048916;28;20180;-61
2023/03/25 11:07:43;;;;;;;0.32;0.32;;;;;;;;;;5040807;28;20183;-62
2023/03/25 11:10:19;;;;;;;0.43;0.32;;;;;;;;;;5041778;28;20185;-61
2023/03/25 11:12:47;;;;;;;0.35;0.35;;;;;;;;;;5039320;28;20206;-62
2023/03/25 11:15:18;;;;;;;0.47;0.40;;;;;;;;;;5048297;28;20180;-61
2023/03/25 11:17:45;;;;;;;0.60;0.47;;;;;;;;;;5049590;28;20551;-61
2023/03/25 11:20:21;;;;;;;0.50;0.40;;;;;;;;;;5043595;28;20224;-62
2023/03/25 11:22:49;;;;;;;0.50;0.50;;;;;;;;;;5044793;28;20186;-61
2023/03/25 11:25:26;;;;;;;0.38;0.32;;;;;;;;;;5042361;28;20180;-62
2023/03/25 11:27:54;;;;;;;0.60;0.40;;;;;;;;;;5051202;28;20431;-62
2023/03/25 11:30:22;;;;;;;0.40;0.40;;;;;;;;;;5032469;28;20192;-62
2023/03/25 11:33:17;;;;;;;0.85;0.38;;;;;;;;;;5043125;28;20555;-62
2023/03/25 11:35:45;;;;;;;0.82;0.50;;;;;;;;;;5028771;28;20200;-62
2023/03/25 11:38:16;;;;;;;0.20;0.20;;;;;;;;;;5036306;28;20201;-61
2023/03/25 11:40:55;;;;;;;0.45;0.30;;;;;;;;;;5044328;28;20211;-61
2023/03/25 11:43:23;;;;;;;1.77;0.50;;;;;;;;;;5035950;28;20294;-61
2023/03/25 11:45:49;;;;;;;0.80;0.50;;;;;;;;;;5036153;28;20546;-61
2023/03/25 11:48:19;;;;;;;0.60;0.50;;;;;;;;;;5049020;28;20178;-61
2023/03/25 11:50:53;;;;;;;0.50;0.38;;;;;;;;;;5044632;28;20266;-61
2023/03/25 11:53:20;;;;;;;0.93;0.50;;;;;;;;;;5039961;28;20183;-61
2023/03/25 11:55:48;;;;;;;0.65;0.38;;;;;;;;;;5049921;28;20195;-61
2023/03/25 11:58:16;;;;;;;0.90;0.70;;;;;;;;;;5049610;28;20191;-60
2023/03/25 12:00:46;;;;;;;0.82;0.50;;;;;;;;;;5043778;28;20470;-62
2023/03/25 12:03:12;;;;;;;0.50;0.40;;;;;;;;;;5037224;28;20261;-61
2023/03/25 12:05:38;;;;;;;0.75;0.40;;;;;;;;;;5042472;28;20213;-61
2023/03/25 12:08:14;;;;;;;0.85;0.50;;;;;;;;;;5041017;28;20530;-61
2023/03/25 12:10:43;;;;;;;2.13;0.60;;;;;;;;;;5033535;28;20215;-61
2023/03/25 12:13:27;;;;;;;0.73;0.50;;;;;;;;;;5046400;28;20177;-61
2023/03/25 12:16:01;;;;;;;1.02;0.50;;;;;;;;;;5039900;28;20183;-61
2023/03/25 12:18:42;;;;;;;0.50;0.30;;;;;;;;;;5045845;28;20222;-62
2023/03/25 12:21:17;;;;;;;1.15;0.50;;;;;;;;;;5034501;28;20266;-61
2023/03/25 12:23:55;;;;;;;0.68;0.45;;;;;;;;;;5050928;28;20186;-51
2023/03/25 12:26:40;;;;;;;1.48;0.57;;;;;;;;;;5038943;28;20199;-52
2023/03/25 12:29:06;;;;;;;5.30;0.60;;;;;;;;;;5032513;28;20487;-50
2023/03/25 12:31:35;;;;;;;2.55;0.63;;;;;;;;;;5030435;28;20221;-45
2023/03/25 12:34:11;;;;;;;9.30;1.33;;;;;;;;;;5045100;28;20193;-43
2023/03/25 12:37:00;;;;;;;2.78;0.88;;;;;;;;;;5039459;28;20313;-45
2023/03/25 12:39:42;;;;;;;6.70;1.20;;;;;;;;;;5048972;28;20550;-45
2023/03/25 12:42:20;;;;;;;4.85;0.90;;;;;;;;;;5028628;28;20168;-46
2023/03/25 12:44:49;;;;;;;1.05;0.80;;;;;;;;;;5050673;28;20197;-51
2023/03/25 12:47:21;;;;;;;5.13;0.98;;;;;;;;;;5038791;28;20197;-47
2023/03/25 12:49:56;;;;;;;4.43;0.80;;;;;;;;;;5046182;28;20175;-49
2023/03/25 12:52:33;;;;;;;3.47;0.90;;;;;;;;;;5030855;28;20187;-49
2023/03/25 12:55:02;;;;;;;4.55;0.80;;;;;;;;;;5048179;28;20274;-49
2023/03/25 12:57:46;;;;;;;5.97;0.93;;;;;;;;;;5054872;28;20266;-48
2023/03/25 13:00:24;;;;;;;4.75;0.90;;;;;;;;;;5029922;28;20597;-47
2023/03/25 13:03:04;;;;;;;6.15;1.38;;;;;;;;;;5022718;28;20263;-47
2023/03/25 13:05:30;;;;;;;9.52;1.50;;;;;;;;;;5045478;28;20172;-49
2023/03/25 13:08:02;;;;;;;5.50;1.30;;;;;;;;;;5053193;28;20220;-46
2023/03/25 13:10:30;;;;;;;6.30;1.63;;;;;;;;;;5033733;28;20207;-49
2023/03/25 13:13:01;;;;;;;6.95;1.80;;;;;;;;;;5038271;28;20188;-51
2023/03/25 13:15:30;;;;;;;3.03;1.13;;;;;;;;;;5035443;28;20183;-46
2023/03/25 13:17:59;;;;;;;7.97;1.80;;;;;;;;;;5050785;28;20180;-47
2023/03/25 13:20:27;;;;;;;3.50;1.10;;;;;;;;;;5043181;28;20200;-47
2023/03/25 13:23:00;;;;;;;2.78;1.20;;;;;;;;;;5033971;28;20245;-50
2023/03/25 13:25:29;;;;;;;6.30;1.60;;;;;;;;;;5033094;28;20179;-52
2023/03/25 13:27:57;;;;;;;6.38;1.40;;;;;;;;;;5039910;28;20188;-47
2023/03/25 13:30:28;;;;;;;6.18;1.50;;;;;;;;;;5034659;28;20177;-45
2023/03/25 13:32:56;;;;;;;8.20;1.63;;;;;;;;;;5033044;28;20190;-53
2023/03/25 13:35:33;;;;;;;1.88;1.38;;;;;;;;;;5024845;28;20567;-54
2023/03/25 13:38:03;;;;;;;6.03;1.48;;;;;;;;;;5041748;28;20193;-53
2023/03/25 13:40:38;;;;;;;5.57;1.20;;;;;;;;;;5041090;28;20448;-53
2023/03/25 13:43:18;;;;;;;5.40;1.38;;;;;;;;;;5049336;28;20186;-54
2023/03/25 13:45:47;;;;;;;3.95;1.30;;;;;;;;;;5028914;28;20588;-54
2023/03/25 13:48:27;;;;;;;5.47;1.13;;;;;;;;;;5044458;28;20217;-54
2023/03/25 13:50:53;;;;;;;1.77;1.00;;;;;;;;;;5032376;28;20212;-54
2023/03/25 13:53:19;;;;;;;2.58;1.13;;;;;;;;;;5034610;28;20191;-54
2023/03/25 13:55:51;;;;;;;9.80;1.27;;;;;;;;;;5034878;28;20274;-54
2023/03/25 13:58:36;;;;;;;2.55;1.08;;;;;;;;;;5046448;28;20496;-54
2023/03/25 14:01:02;;;;;;;2.35;0.77;;;;;;;;;;5047042;28;20218;-54
2023/03/25 14:03:36;;;;;;;2.83;0.90;;;;;;;;;;5040360;28;20274;-54
2023/03/25 14:06:19;;;;;;;1.23;0.77;;;;;;;;;;5043335;28;20197;-54
2023/03/25 14:09:04;;;;;;;1.08;0.60;;;;;;;;;;5031199;28;20183;-54
2023/03/25 14:11:34;;;;;;;1.45;0.95;;;;;;;;;;5036649;28;20178;-54
2023/03/25 14:14:04;;;;;;;4.05;0.90;;;;;;;;;;5030509;28;20191;-53
2023/03/25 14:16:34;;;;;;;3.03;0.80;;;;;;;;;;5044141;28;20665;-53
2023/03/25 14:19:02;;;;;;;3.72;0.90;;;;;;;;;;5041631;28;20182;-53
2023/03/25 14:21:38;;;;;;;4.57;1.02;;;;;;;;;;5032249;28;20184;-51
2023/03/25 14:24:06;;;;;;;2.90;1.25;;;;;;;;;;5030790;28;20196;-50
2023/03/25 14:26:34;;;;;;;5.70;1.27;;;;;;;;;;5031696;28;20192;-51
2023/03/25 14:29:06;;;;;;;3.08;1.27;;;;;;;;;;5040227;28;20195;-51
2023/03/25 14:31:32;;;;;;;2.35;1.00;;;;;;;;;;5035157;28;20259;-51
2023/03/25 14:34:01;;;;;;;3.40;1.48;;;;;;;;;;5028274;28;20597;-51
2023/03/25 14:36:41;;;;;;;6.70;1.80;;;;;;;;;;5029272;28;20270;-51
2023/03/25 14:39:11;;;;;;;3.17;1.40;;;;;;;;;;5032250;28;20207;-51
2023/03/25 14:41:56;;;;;;;4.32;1.63;;;;;;;;;;5038733;28;20458;-51
2023/03/25 14:44:27;;;;;;;5.80;1.52;;;;;;;;;;5042186;28;20456;-51
2023/03/25 14:47:01;;;;;;;3.10;1.35;;;;;;;;;;5054338;28;20167;-51
2023/03/25 14:49:45;;;;;;;4.75;1.80;;;;;;;;;;5046934;28;20179;-50
2023/03/25 14:52:14;;;;;;;3.97;1.20;;;;;;;;;;5040949;28;20190;-51
2023/03/25 14:54:42;;;;;;;4.82;1.50;;;;;;;;;;5038707;28;20180;-51
2023/03/25 14:57:14;;;;;;;4.35;1.40;;;;;;;;;;5053129;28;20206;-51
2023/03/25 14:59:43;;;;;;;3.45;1.45;;;;;;;;;;5038248;28;20247;-51